sensor_id;sensor_type;location;lat;lon;timestamp;temperature;humidity
75927;DHT22;64605;48.296;16.416;2023-06-14T00:01:52;15.00;66.10
75927;DHT22;64605;48.296;16.416;2023-06-14T00:04:18;15.00;65.90
75927;DHT22;64605;48.296;16.416;2023-06-14T00:06:46;15.00;65.90
75927;DHT22;64605;48.296;16.416;2023-06-14T00:09:12;15.00;65.30
75927;DHT22;64605;48.296;16.416;2023-06-14T00:11:41;15.00;66.10
75927;DHT22;64605;48.296;16.416;2023-06-14T00:14:07;15.00;65.50
75927;DHT22;64605;48.296;16.416;2023-06-14T00:16:33;15.00;64.90
75927;DHT22;64605;48.296;16.416;2023-06-14T00:19:03;14.90;64.70
75927;DHT22;64605;48.296;16.416;2023-06-14T00:21:30;15.00;65.60
75927;DHT22;64605;48.296;16.416;2023-06-14T00:23:57;14.90;65.40
75927;DHT22;64605;48.296;16.416;2023-06-14T00:26:23;14.90;65.60
75927;DHT22;64605;48.296;16.416;2023-06-14T00:28:49;14.90;66.00
75927;DHT22;64605;48.296;16.416;2023-06-14T00:31:14;14.90;65.50
75927;DHT22;64605;48.296;16.416;2023-06-14T00:33:40;14.90;66.30
75927;DHT22;64605;48.296;16.416;2023-06-14T00:36:06;14.80;66.20
75927;DHT22;64605;48.296;16.416;2023-06-14T00:38:31;14.80;66.80
75927;DHT22;64605;48.296;16.416;2023-06-14T00:40:57;14.80;66.60
75927;DHT22;64605;48.296;16.416;2023-06-14T00:43:23;14.80;65.80
75927;DHT22;64605;48.296;16.416;2023-06-14T00:45:48;14.80;66.60
75927;DHT22;64605;48.296;16.416;2023-06-14T00:48:15;14.80;65.40
75927;DHT22;64605;48.296;16.416;2023-06-14T00:50:41;14.80;66.20
75927;DHT22;64605;48.296;16.416;2023-06-14T00:53:14;14.70;65.60
75927;DHT22;64605;48.296;16.416;2023-06-14T00:55:40;14.70;66.60
75927;DHT22;64605;48.296;16.416;2023-06-14T00:58:07;14.60;67.30
75927;DHT22;64605;48.296;16.416;2023-06-14T01:00:33;14.60;67.20
75927;DHT22;64605;48.296;16.416;2023-06-14T01:02:58;14.60;67.40
75927;DHT22;64605;48.296;16.416;2023-06-14T01:05:25;14.60;67.50
75927;DHT22;64605;48.296;16.416;2023-06-14T01:11:13;14.50;67.70
75927;DHT22;64605;48.296;16.416;2023-06-14T01:13:45;14.50;67.40
75927;DHT22;64605;48.296;16.416;2023-06-14T01:16:12;14.50;67.40
75927;DHT22;64605;48.296;16.416;2023-06-14T01:18:38;14.50;67.70
75927;DHT22;64605;48.296;16.416;2023-06-14T01:21:03;14.50;67.40
75927;DHT22;64605;48.296;16.416;2023-06-14T01:23:32;14.40;67.30
75927;DHT22;64605;48.296;16.416;2023-06-14T01:25:59;14.40;68.10
75927;DHT22;64605;48.296;16.416;2023-06-14T01:28:26;14.40;67.90
75927;DHT22;64605;48.296;16.416;2023-06-14T01:30:59;14.40;68.20
75927;DHT22;64605;48.296;16.416;2023-06-14T01:33:27;14.30;68.10
75927;DHT22;64605;48.296;16.416;2023-06-14T01:35:54;14.30;68.90
75927;DHT22;64605;48.296;16.416;2023-06-14T01:38:23;14.30;68.20
75927;DHT22;64605;48.296;16.416;2023-06-14T01:40:50;14.40;67.70
75927;DHT22;64605;48.296;16.416;2023-06-14T01:43:17;14.40;68.10
75927;DHT22;64605;48.296;16.416;2023-06-14T01:45:47;14.30;68.90
75927;DHT22;64605;48.296;16.416;2023-06-14T01:48:13;14.30;68.90
75927;DHT22;64605;48.296;16.416;2023-06-14T01:50:39;14.30;68.70
75927;DHT22;64605;48.296;16.416;2023-06-14T01:53:08;14.40;69.10
75927;DHT22;64605;48.296;16.416;2023-06-14T01:55:34;14.40;68.50
75927;DHT22;64605;48.296;16.416;2023-06-14T01:58:03;14.30;68.50
75927;DHT22;64605;48.296;16.416;2023-06-14T02:00:29;14.30;68.90
75927;DHT22;64605;48.296;16.416;2023-06-14T02:02:54;14.30;68.50
75927;DHT22;64605;48.296;16.416;2023-06-14T02:05:21;14.30;69.00
75927;DHT22;64605;48.296;16.416;2023-06-14T02:07:46;14.40;68.60
75927;DHT22;64605;48.296;16.416;2023-06-14T02:10:12;14.40;68.40
75927;DHT22;64605;48.296;16.416;2023-06-14T02:12:38;14.40;68.80
75927;DHT22;64605;48.296;16.416;2023-06-14T02:15:04;14.40;69.50
75927;DHT22;64605;48.296;16.416;2023-06-14T02:17:31;14.50;69.50
75927;DHT22;64605;48.296;16.416;2023-06-14T02:19:57;14.50;70.00
75927;DHT22;64605;48.296;16.416;2023-06-14T02:22:22;14.50;69.60
75927;DHT22;64605;48.296;16.416;2023-06-14T02:24:48;14.50;69.70
75927;DHT22;64605;48.296;16.416;2023-06-14T02:27:14;14.50;69.70
75927;DHT22;64605;48.296;16.416;2023-06-14T02:29:40;14.50;69.70
75927;DHT22;64605;48.296;16.416;2023-06-14T02:32:06;14.60;70.30
75927;DHT22;64605;48.296;16.416;2023-06-14T02:34:33;14.60;70.20
75927;DHT22;64605;48.296;16.416;2023-06-14T02:37:00;14.60;69.90
75927;DHT22;64605;48.296;16.416;2023-06-14T02:39:26;14.60;69.80
75927;DHT22;64605;48.296;16.416;2023-06-14T02:41:51;14.60;69.60
75927;DHT22;64605;48.296;16.416;2023-06-14T02:44:24;14.70;69.40
75927;DHT22;64605;48.296;16.416;2023-06-14T02:46:51;14.60;69.80
75927;DHT22;64605;48.296;16.416;2023-06-14T02:49:16;14.70;68.80
75927;DHT22;64605;48.296;16.416;2023-06-14T02:51:42;14.70;69.90
75927;DHT22;64605;48.296;16.416;2023-06-14T02:54:07;14.60;70.20
75927;DHT22;64605;48.296;16.416;2023-06-14T02:56:33;14.60;70.10
75927;DHT22;64605;48.296;16.416;2023-06-14T02:58:59;14.70;70.40
75927;DHT22;64605;48.296;16.416;2023-06-14T03:01:26;14.80;69.90
75927;DHT22;64605;48.296;16.416;2023-06-14T03:04:03;14.80;69.60
75927;DHT22;64605;48.296;16.416;2023-06-14T03:06:29;14.90;69.70
75927;DHT22;64605;48.296;16.416;2023-06-14T03:08:56;14.90;69.60
75927;DHT22;64605;48.296;16.416;2023-06-14T03:11:26;14.90;70.00
75927;DHT22;64605;48.296;16.416;2023-06-14T03:13:52;14.90;69.80
75927;DHT22;64605;48.296;16.416;2023-06-14T03:16:19;14.90;70.10
75927;DHT22;64605;48.296;16.416;2023-06-14T03:18:50;15.00;69.80
75927;DHT22;64605;48.296;16.416;2023-06-14T03:21:16;15.00;69.80
75927;DHT22;64605;48.296;16.416;2023-06-14T03:23:43;15.00;70.20
75927;DHT22;64605;48.296;16.416;2023-06-14T03:26:09;15.00;70.40
75927;DHT22;64605;48.296;16.416;2023-06-14T03:28:38;15.00;70.50
75927;DHT22;64605;48.296;16.416;2023-06-14T03:31:04;15.00;70.40
75927;DHT22;64605;48.296;16.416;2023-06-14T03:33:29;15.10;69.80
75927;DHT22;64605;48.296;16.416;2023-06-14T03:35:55;15.00;69.80
75927;DHT22;64605;48.296;16.416;2023-06-14T03:38:21;15.00;70.10
75927;DHT22;64605;48.296;16.416;2023-06-14T03:40:47;15.10;70.20
75927;DHT22;64605;48.296;16.416;2023-06-14T03:43:13;15.20;69.90
75927;DHT22;64605;48.296;16.416;2023-06-14T03:45:39;15.30;69.40
75927;DHT22;64605;48.296;16.416;2023-06-14T03:48:05;15.30;69.70
75927;DHT22;64605;48.296;16.416;2023-06-14T03:50:32;15.40;69.60
75927;DHT22;64605;48.296;16.416;2023-06-14T03:52:58;15.40;69.20
75927;DHT22;64605;48.296;16.416;2023-06-14T03:55:23;15.50;68.70
75927;DHT22;64605;48.296;16.416;2023-06-14T03:57:51;15.60;68.50
75927;DHT22;64605;48.296;16.416;2023-06-14T04:00:17;15.60;68.20
75927;DHT22;64605;48.296;16.416;2023-06-14T04:02:43;15.80;67.70
75927;DHT22;64605;48.296;16.416;2023-06-14T04:05:10;16.00;67.50
75927;DHT22;64605;48.296;16.416;2023-06-14T04:07:35;16.10;67.00
75927;DHT22;64605;48.296;16.416;2023-06-14T04:10:14;16.30;65.50
75927;DHT22;64605;48.296;16.416;2023-06-14T04:12:40;16.40;65.00
75927;DHT22;64605;48.296;16.416;2023-06-14T04:15:06;16.60;62.90
75927;DHT22;64605;48.296;16.416;2023-06-14T04:17:33;16.70;61.60
75927;DHT22;64605;48.296;16.416;2023-06-14T04:19:59;16.80;60.20
75927;DHT22;64605;48.296;16.416;2023-06-14T04:22:26;17.00;60.00
75927;DHT22;64605;48.296;16.416;2023-06-14T04:24:54;17.20;59.20
75927;DHT22;64605;48.296;16.416;2023-06-14T04:27:25;17.40;58.70
75927;DHT22;64605;48.296;16.416;2023-06-14T04:29:52;17.40;57.30
75927;DHT22;64605;48.296;16.416;2023-06-14T04:32:27;17.50;57.00
75927;DHT22;64605;48.296;16.416;2023-06-14T04:34:55;17.70;58.70
75927;DHT22;64605;48.296;16.416;2023-06-14T04:37:22;17.90;59.70
75927;DHT22;64605;48.296;16.416;2023-06-14T04:39:48;18.20;59.60
75927;DHT22;64605;48.296;16.416;2023-06-14T04:42:14;18.40;58.40
75927;DHT22;64605;48.296;16.416;2023-06-14T04:44:43;18.60;57.80
75927;DHT22;64605;48.296;16.416;2023-06-14T04:47:09;18.80;57.00
75927;DHT22;64605;48.296;16.416;2023-06-14T04:49:35;19.00;55.60
75927;DHT22;64605;48.296;16.416;2023-06-14T04:52:01;19.10;55.00
75927;DHT22;64605;48.296;16.416;2023-06-14T04:54:28;19.10;53.30
75927;DHT22;64605;48.296;16.416;2023-06-14T04:56:57;19.20;53.80
75927;DHT22;64605;48.296;16.416;2023-06-14T04:59:22;19.30;52.50
75927;DHT22;64605;48.296;16.416;2023-06-14T05:01:51;19.40;51.80
75927;DHT22;64605;48.296;16.416;2023-06-14T05:04:19;19.50;52.70
75927;DHT22;64605;48.296;16.416;2023-06-14T05:06:45;19.70;51.40
75927;DHT22;64605;48.296;16.416;2023-06-14T05:09:13;20.00;52.30
75927;DHT22;64605;48.296;16.416;2023-06-14T05:11:38;20.30;51.60
75927;DHT22;64605;48.296;16.416;2023-06-14T05:14:04;21.80;50.70
75927;DHT22;64605;48.296;16.416;2023-06-14T05:16:31;24.40;45.70
75927;DHT22;64605;48.296;16.416;2023-06-14T05:18:57;26.60;39.90
75927;DHT22;64605;48.296;16.416;2023-06-14T05:21:24;28.40;37.40
75927;DHT22;64605;48.296;16.416;2023-06-14T05:23:49;29.60;32.60
75927;DHT22;64605;48.296;16.416;2023-06-14T05:26:16;30.50;31.70
75927;DHT22;64605;48.296;16.416;2023-06-14T05:28:42;31.30;29.90
75927;DHT22;64605;48.296;16.416;2023-06-14T05:31:08;32.20;28.50
75927;DHT22;64605;48.296;16.416;2023-06-14T05:33:33;31.90;28.10
75927;DHT22;64605;48.296;16.416;2023-06-14T05:35:59;31.90;27.70
75927;DHT22;64605;48.296;16.416;2023-06-14T05:38:25;32.00;27.60
75927;DHT22;64605;48.296;16.416;2023-06-14T05:40:51;30.90;27.40
75927;DHT22;64605;48.296;16.416;2023-06-14T05:43:16;30.20;28.50
75927;DHT22;64605;48.296;16.416;2023-06-14T05:45:42;30.30;28.80
75927;DHT22;64605;48.296;16.416;2023-06-14T05:48:08;30.00;28.00
75927;DHT22;64605;48.296;16.416;2023-06-14T05:50:33;29.00;28.30
75927;DHT22;64605;48.296;16.416;2023-06-14T05:52:59;27.60;29.10
75927;DHT22;64605;48.296;16.416;2023-06-14T05:55:25;26.80;31.70
75927;DHT22;64605;48.296;16.416;2023-06-14T05:57:50;26.20;32.50
75927;DHT22;64605;48.296;16.416;2023-06-14T06:00:17;25.80;33.60
75927;DHT22;64605;48.296;16.416;2023-06-14T06:02:43;26.20;33.80
75927;DHT22;64605;48.296;16.416;2023-06-14T06:05:13;27.20;34.00
75927;DHT22;64605;48.296;16.416;2023-06-14T06:07:39;28.00;31.40
75927;DHT22;64605;48.296;16.416;2023-06-14T06:10:06;28.20;31.70
75927;DHT22;64605;48.296;16.416;2023-06-14T06:12:32;28.40;30.80
75927;DHT22;64605;48.296;16.416;2023-06-14T06:14:58;28.20;30.60
75927;DHT22;64605;48.296;16.416;2023-06-14T06:17:25;27.80;30.50
75927;DHT22;64605;48.296;16.416;2023-06-14T06:19:51;28.20;31.10
75927;DHT22;64605;48.296;16.416;2023-06-14T06:22:17;29.50;30.00
75927;DHT22;64605;48.296;16.416;2023-06-14T06:24:42;30.80;27.80
75927;DHT22;64605;48.296;16.416;2023-06-14T06:27:08;31.60;27.00
75927;DHT22;64605;48.296;16.416;2023-06-14T06:29:35;31.40;26.50
75927;DHT22;64605;48.296;16.416;2023-06-14T06:32:01;30.80;27.40
75927;DHT22;64605;48.296;16.416;2023-06-14T06:34:27;30.00;28.10
75927;DHT22;64605;48.296;16.416;2023-06-14T06:36:52;29.40;29.70
75927;DHT22;64605;48.296;16.416;2023-06-14T06:39:18;28.90;29.20
75927;DHT22;64605;48.296;16.416;2023-06-14T06:41:44;28.60;28.40
75927;DHT22;64605;48.296;16.416;2023-06-14T06:44:09;28.20;28.70
75927;DHT22;64605;48.296;16.416;2023-06-14T06:46:36;27.90;29.30
75927;DHT22;64605;48.296;16.416;2023-06-14T06:49:05;27.80;31.10
75927;DHT22;64605;48.296;16.416;2023-06-14T06:51:31;27.80;29.10
75927;DHT22;64605;48.296;16.416;2023-06-14T06:53:57;27.80;29.30
75927;DHT22;64605;48.296;16.416;2023-06-14T06:56:22;27.90;29.50
75927;DHT22;64605;48.296;16.416;2023-06-14T06:58:52;27.90;29.20
75927;DHT22;64605;48.296;16.416;2023-06-14T07:01:18;28.50;30.00
75927;DHT22;64605;48.296;16.416;2023-06-14T07:03:47;30.00;29.60
75927;DHT22;64605;48.296;16.416;2023-06-14T07:06:12;31.70;27.60
75927;DHT22;64605;48.296;16.416;2023-06-14T07:08:38;33.50;26.50
75927;DHT22;64605;48.296;16.416;2023-06-14T07:11:04;35.10;25.10
75927;DHT22;64605;48.296;16.416;2023-06-14T07:13:31;36.30;23.80
75927;DHT22;64605;48.296;16.416;2023-06-14T07:16:00;37.00;22.60
75927;DHT22;64605;48.296;16.416;2023-06-14T07:18:26;38.00;21.80
75927;DHT22;64605;48.296;16.416;2023-06-14T07:20:55;38.50;21.10
75927;DHT22;64605;48.296;16.416;2023-06-14T07:23:21;39.10;20.80
75927;DHT22;64605;48.296;16.416;2023-06-14T07:25:47;39.50;19.80
75927;DHT22;64605;48.296;16.416;2023-06-14T07:28:12;40.10;19.20
75927;DHT22;64605;48.296;16.416;2023-06-14T07:30:38;40.60;18.30
75927;DHT22;64605;48.296;16.416;2023-06-14T07:33:04;41.00;17.70
75927;DHT22;64605;48.296;16.416;2023-06-14T07:35:29;41.30;16.80
75927;DHT22;64605;48.296;16.416;2023-06-14T07:37:55;41.50;17.20
75927;DHT22;64605;48.296;16.416;2023-06-14T07:40:21;41.90;16.60
75927;DHT22;64605;48.296;16.416;2023-06-14T07:42:46;42.50;16.80
75927;DHT22;64605;48.296;16.416;2023-06-14T07:45:13;42.90;15.50
75927;DHT22;64605;48.296;16.416;2023-06-14T07:47:39;42.80;16.00
75927;DHT22;64605;48.296;16.416;2023-06-14T07:50:05;43.00;16.00
75927;DHT22;64605;48.296;16.416;2023-06-14T07:52:31;43.30;15.50
75927;DHT22;64605;48.296;16.416;2023-06-14T07:54:57;43.30;15.40
75927;DHT22;64605;48.296;16.416;2023-06-14T07:57:23;43.80;15.10
75927;DHT22;64605;48.296;16.416;2023-06-14T07:59:49;43.90;14.90
75927;DHT22;64605;48.296;16.416;2023-06-14T08:02:15;44.10;15.60
75927;DHT22;64605;48.296;16.416;2023-06-14T08:04:41;44.30;15.10
75927;DHT22;64605;48.296;16.416;2023-06-14T08:07:07;44.70;14.70
75927;DHT22;64605;48.296;16.416;2023-06-14T08:09:33;45.20;13.90
75927;DHT22;64605;48.296;16.416;2023-06-14T08:11:59;45.30;13.50
75927;DHT22;64605;48.296;16.416;2023-06-14T08:14:25;45.20;13.60
75927;DHT22;64605;48.296;16.416;2023-06-14T08:16:51;45.20;13.70
75927;DHT22;64605;48.296;16.416;2023-06-14T08:19:17;45.40;13.70
75927;DHT22;64605;48.296;16.416;2023-06-14T08:21:43;45.60;13.00
75927;DHT22;64605;48.296;16.416;2023-06-14T08:24:11;45.40;12.50
75927;DHT22;64605;48.296;16.416;2023-06-14T08:26:38;44.80;13.50
75927;DHT22;64605;48.296;16.416;2023-06-14T08:29:04;45.40;13.30
75927;DHT22;64605;48.296;16.416;2023-06-14T08:31:32;45.60;12.90
75927;DHT22;64605;48.296;16.416;2023-06-14T08:33:58;45.80;12.00
75927;DHT22;64605;48.296;16.416;2023-06-14T08:36:24;45.20;12.80
75927;DHT22;64605;48.296;16.416;2023-06-14T08:38:49;45.70;12.30
75927;DHT22;64605;48.296;16.416;2023-06-14T08:41:20;46.10;12.70
75927;DHT22;64605;48.296;16.416;2023-06-14T08:43:47;46.00;12.60
75927;DHT22;64605;48.296;16.416;2023-06-14T08:46:14;46.40;12.20
75927;DHT22;64605;48.296;16.416;2023-06-14T08:48:51;46.60;12.10
75927;DHT22;64605;48.296;16.416;2023-06-14T08:51:21;47.00;12.10
75927;DHT22;64605;48.296;16.416;2023-06-14T08:53:52;46.80;12.10
75927;DHT22;64605;48.296;16.416;2023-06-14T08:56:18;46.90;11.40
75927;DHT22;64605;48.296;16.416;2023-06-14T08:58:47;47.10;11.20
75927;DHT22;64605;48.296;16.416;2023-06-14T09:01:13;46.80;11.30
75927;DHT22;64605;48.296;16.416;2023-06-14T09:03:42;46.80;11.90
75927;DHT22;64605;48.296;16.416;2023-06-14T09:06:09;47.00;11.80
75927;DHT22;64605;48.296;16.416;2023-06-14T09:08:43;47.30;12.40
75927;DHT22;64605;48.296;16.416;2023-06-14T09:11:11;47.20;11.30
75927;DHT22;64605;48.296;16.416;2023-06-14T09:13:38;46.90;10.90
75927;DHT22;64605;48.296;16.416;2023-06-14T09:16:05;46.50;11.70
75927;DHT22;64605;48.296;16.416;2023-06-14T09:18:47;47.10;12.20
75927;DHT22;64605;48.296;16.416;2023-06-14T09:21:16;47.80;11.30
75927;DHT22;64605;48.296;16.416;2023-06-14T09:23:47;48.00;11.10
75927;DHT22;64605;48.296;16.416;2023-06-14T09:26:17;47.90;11.50
75927;DHT22;64605;48.296;16.416;2023-06-14T09:28:49;47.50;11.10
75927;DHT22;64605;48.296;16.416;2023-06-14T09:31:17;47.10;11.30
75927;DHT22;64605;48.296;16.416;2023-06-14T09:33:48;47.00;11.10
75927;DHT22;64605;48.296;16.416;2023-06-14T09:36:18;47.20;11.00
75927;DHT22;64605;48.296;16.416;2023-06-14T09:39:17;47.30;11.10
75927;DHT22;64605;48.296;16.416;2023-06-14T09:41:44;47.50;11.20
75927;DHT22;64605;48.296;16.416;2023-06-14T09:44:10;47.10;11.00
75927;DHT22;64605;48.296;16.416;2023-06-14T09:46:37;47.10;11.10
75927;DHT22;64605;48.296;16.416;2023-06-14T09:49:04;46.90;10.90
75927;DHT22;64605;48.296;16.416;2023-06-14T09:51:30;46.70;10.80
75927;DHT22;64605;48.296;16.416;2023-06-14T09:53:59;46.30;11.50
75927;DHT22;64605;48.296;16.416;2023-06-14T09:56:35;46.20;11.20
75927;DHT22;64605;48.296;16.416;2023-06-14T09:59:04;46.20;11.50
75927;DHT22;64605;48.296;16.416;2023-06-14T10:01:31;46.20;10.80
75927;DHT22;64605;48.296;16.416;2023-06-14T10:04:04;46.40;11.70
75927;DHT22;64605;48.296;16.416;2023-06-14T10:06:31;46.00;11.00
75927;DHT22;64605;48.296;16.416;2023-06-14T10:08:59;46.00;10.70
75927;DHT22;64605;48.296;16.416;2023-06-14T10:11:26;46.30;11.10
75927;DHT22;64605;48.296;16.416;2023-06-14T10:13:53;46.40;10.90
75927;DHT22;64605;48.296;16.416;2023-06-14T10:19:19;45.70;10.20
75927;DHT22;64605;48.296;16.416;2023-06-14T10:22:17;45.10;11.10
75927;DHT22;64605;48.296;16.416;2023-06-14T10:24:45;45.50;10.40
75927;DHT22;64605;48.296;16.416;2023-06-14T10:27:13;45.30;11.50
75927;DHT22;64605;48.296;16.416;2023-06-14T10:32:25;45.70;11.10
75927;DHT22;64605;48.296;16.416;2023-06-14T10:35:02;45.30;10.80
75927;DHT22;64605;48.296;16.416;2023-06-14T10:37:29;43.70;11.30
75927;DHT22;64605;48.296;16.416;2023-06-14T10:39:55;41.60;11.80
75927;DHT22;64605;48.296;16.416;2023-06-14T10:42:21;39.70;13.20
75927;DHT22;64605;48.296;16.416;2023-06-14T10:44:52;38.20;14.10
75927;DHT22;64605;48.296;16.416;2023-06-14T10:52:28;37.80;15.00
75927;DHT22;64605;48.296;16.416;2023-06-14T10:57:41;37.70;14.90
75927;DHT22;64605;48.296;16.416;2023-06-14T11:00:08;37.70;15.10
75927;DHT22;64605;48.296;16.416;2023-06-14T11:05:28;36.90;14.90
75927;DHT22;64605;48.296;16.416;2023-06-14T11:10:59;36.40;15.40
75927;DHT22;64605;48.296;16.416;2023-06-14T11:13:28;35.80;15.70
75927;DHT22;64605;48.296;16.416;2023-06-14T11:15:54;35.00;16.60
75927;DHT22;64605;48.296;16.416;2023-06-14T11:18:22;34.20;16.80
75927;DHT22;64605;48.296;16.416;2023-06-14T11:20:51;33.40;17.90
75927;DHT22;64605;48.296;16.416;2023-06-14T11:23:17;32.80;19.00
75927;DHT22;64605;48.296;16.416;2023-06-14T11:25:42;32.60;18.70
75927;DHT22;64605;48.296;16.416;2023-06-14T11:28:08;32.80;19.10
75927;DHT22;64605;48.296;16.416;2023-06-14T11:30:34;33.00;18.90
75927;DHT22;64605;48.296;16.416;2023-06-14T11:32:59;33.20;18.80
75927;DHT22;64605;48.296;16.416;2023-06-14T11:35:26;32.90;18.20
75927;DHT22;64605;48.296;16.416;2023-06-14T11:37:55;32.50;18.80
75927;DHT22;64605;48.296;16.416;2023-06-14T11:40:24;32.10;19.80
75927;DHT22;64605;48.296;16.416;2023-06-14T11:42:54;32.00;19.50
75927;DHT22;64605;48.296;16.416;2023-06-14T11:45:23;32.00;19.70
75927;DHT22;64605;48.296;16.416;2023-06-14T11:47:50;32.10;19.00
75927;DHT22;64605;48.296;16.416;2023-06-14T11:50:16;32.10;19.60
75927;DHT22;64605;48.296;16.416;2023-06-14T11:52:42;32.00;20.00
75927;DHT22;64605;48.296;16.416;2023-06-14T11:55:08;31.50;19.70
75927;DHT22;64605;48.296;16.416;2023-06-14T11:57:34;31.40;20.20
75927;DHT22;64605;48.296;16.416;2023-06-14T12:00:03;31.20;20.70
75927;DHT22;64605;48.296;16.416;2023-06-14T12:02:33;31.00;20.70
75927;DHT22;64605;48.296;16.416;2023-06-14T12:05:04;31.00;20.60
75927;DHT22;64605;48.296;16.416;2023-06-14T12:07:32;31.00;21.00
75927;DHT22;64605;48.296;16.416;2023-06-14T12:12:24;30.80;21.20
75927;DHT22;64605;48.296;16.416;2023-06-14T12:14:55;30.40;20.80
75927;DHT22;64605;48.296;16.416;2023-06-14T12:17:21;30.20;21.00
75927;DHT22;64605;48.296;16.416;2023-06-14T12:19:49;29.70;21.20
75927;DHT22;64605;48.296;16.416;2023-06-14T12:22:16;29.40;21.80
75927;DHT22;64605;48.296;16.416;2023-06-14T12:24:45;29.50;22.40
75927;DHT22;64605;48.296;16.416;2023-06-14T12:27:12;29.80;22.60
75927;DHT22;64605;48.296;16.416;2023-06-14T12:29:41;29.80;22.20
75927;DHT22;64605;48.296;16.416;2023-06-14T12:32:09;29.70;22.30
75927;DHT22;64605;48.296;16.416;2023-06-14T12:34:35;29.50;21.80
75927;DHT22;64605;48.296;16.416;2023-06-14T12:37:01;29.30;22.30
75927;DHT22;64605;48.296;16.416;2023-06-14T12:39:28;29.40;22.40
75927;DHT22;64605;48.296;16.416;2023-06-14T12:41:55;29.40;22.20
75927;DHT22;64605;48.296;16.416;2023-06-14T12:44:21;29.20;22.10
75927;DHT22;64605;48.296;16.416;2023-06-14T12:46:46;29.50;23.20
75927;DHT22;64605;48.296;16.416;2023-06-14T12:49:12;29.80;22.10
75927;DHT22;64605;48.296;16.416;2023-06-14T12:51:41;29.80;22.00
75927;DHT22;64605;48.296;16.416;2023-06-14T12:54:06;29.60;21.90
75927;DHT22;64605;48.296;16.416;2023-06-14T12:56:32;29.30;22.30
75927;DHT22;64605;48.296;16.416;2023-06-14T12:58:58;29.00;22.10
75927;DHT22;64605;48.296;16.416;2023-06-14T13:01:24;28.50;22.60
75927;DHT22;64605;48.296;16.416;2023-06-14T13:03:50;28.00;23.10
75927;DHT22;64605;48.296;16.416;2023-06-14T13:06:21;27.60;23.80
75927;DHT22;64605;48.296;16.416;2023-06-14T13:08:47;27.30;24.00
75927;DHT22;64605;48.296;16.416;2023-06-14T13:11:13;27.30;24.50
75927;DHT22;64605;48.296;16.416;2023-06-14T13:13:39;27.40;25.00
75927;DHT22;64605;48.296;16.416;2023-06-14T13:16:05;27.50;24.30
75927;DHT22;64605;48.296;16.416;2023-06-14T13:18:31;27.50;25.00
75927;DHT22;64605;48.296;16.416;2023-06-14T13:20:57;27.60;24.10
75927;DHT22;64605;48.296;16.416;2023-06-14T13:23:22;27.60;24.30
75927;DHT22;64605;48.296;16.416;2023-06-14T13:25:48;27.80;24.20
75927;DHT22;64605;48.296;16.416;2023-06-14T13:28:16;27.90;23.50
75927;DHT22;64605;48.296;16.416;2023-06-14T13:30:42;27.80;24.40
75927;DHT22;64605;48.296;16.416;2023-06-14T13:33:08;27.90;23.70
75927;DHT22;64605;48.296;16.416;2023-06-14T13:35:33;28.00;23.60
75927;DHT22;64605;48.296;16.416;2023-06-14T13:37:59;28.20;24.00
75927;DHT22;64605;48.296;16.416;2023-06-14T13:40:25;28.30;24.10
75927;DHT22;64605;48.296;16.416;2023-06-14T13:42:51;28.40;23.90
75927;DHT22;64605;48.296;16.416;2023-06-14T13:45:17;28.40;23.90
75927;DHT22;64605;48.296;16.416;2023-06-14T13:47:42;28.20;24.40
75927;DHT22;64605;48.296;16.416;2023-06-14T13:50:08;28.10;24.20
75927;DHT22;64605;48.296;16.416;2023-06-14T13:52:34;28.10;24.40
75927;DHT22;64605;48.296;16.416;2023-06-14T13:55:00;28.10;24.80
75927;DHT22;64605;48.296;16.416;2023-06-14T13:57:26;28.00;24.60
75927;DHT22;64605;48.296;16.416;2023-06-14T13:59:52;27.90;24.50
75927;DHT22;64605;48.296;16.416;2023-06-14T14:02:20;27.80;24.20
75927;DHT22;64605;48.296;16.416;2023-06-14T14:04:46;27.70;24.30
75927;DHT22;64605;48.296;16.416;2023-06-14T14:07:18;27.40;24.40
75927;DHT22;64605;48.296;16.416;2023-06-14T14:09:44;27.30;24.80
75927;DHT22;64605;48.296;16.416;2023-06-14T14:12:10;27.30;25.10
75927;DHT22;64605;48.296;16.416;2023-06-14T14:14:36;27.00;24.50
75927;DHT22;64605;48.296;16.416;2023-06-14T14:17:02;26.90;24.80
75927;DHT22;64605;48.296;16.416;2023-06-14T14:19:28;26.60;25.30
75927;DHT22;64605;48.296;16.416;2023-06-14T14:21:54;26.60;25.50
75927;DHT22;64605;48.296;16.416;2023-06-14T14:24:19;26.50;25.50
75927;DHT22;64605;48.296;16.416;2023-06-14T14:26:45;26.50;25.40
75927;DHT22;64605;48.296;16.416;2023-06-14T14:29:14;26.10;25.60
75927;DHT22;64605;48.296;16.416;2023-06-14T14:31:40;26.00;26.30
75927;DHT22;64605;48.296;16.416;2023-06-14T14:34:05;25.90;26.40
75927;DHT22;64605;48.296;16.416;2023-06-14T14:36:31;26.00;28.60
75927;DHT22;64605;48.296;16.416;2023-06-14T14:38:59;26.10;27.20
75927;DHT22;64605;48.296;16.416;2023-06-14T14:41:24;26.00;28.20
75927;DHT22;64605;48.296;16.416;2023-06-14T14:43:50;26.00;26.80
75927;DHT22;64605;48.296;16.416;2023-06-14T14:46:16;26.10;26.50
75927;DHT22;64605;48.296;16.416;2023-06-14T14:48:42;26.20;27.10
75927;DHT22;64605;48.296;16.416;2023-06-14T14:51:08;26.20;27.20
75927;DHT22;64605;48.296;16.416;2023-06-14T14:53:33;26.20;26.30
75927;DHT22;64605;48.296;16.416;2023-06-14T14:55:59;26.30;26.30
75927;DHT22;64605;48.296;16.416;2023-06-14T14:58:25;26.30;26.60
75927;DHT22;64605;48.296;16.416;2023-06-14T15:00:51;26.40;26.10
75927;DHT22;64605;48.296;16.416;2023-06-14T15:03:16;26.60;26.20
75927;DHT22;64605;48.296;16.416;2023-06-14T15:05:42;26.70;27.40
75927;DHT22;64605;48.296;16.416;2023-06-14T15:08:08;26.70;28.00
75927;DHT22;64605;48.296;16.416;2023-06-14T15:10:38;26.70;27.70
75927;DHT22;64605;48.296;16.416;2023-06-14T15:13:06;26.70;28.10
75927;DHT22;64605;48.296;16.416;2023-06-14T15:15:32;26.70;26.90
75927;DHT22;64605;48.296;16.416;2023-06-14T15:17:59;26.60;26.60
75927;DHT22;64605;48.296;16.416;2023-06-14T15:20:25;26.40;26.80
75927;DHT22;64605;48.296;16.416;2023-06-14T15:22:51;26.30;26.90
75927;DHT22;64605;48.296;16.416;2023-06-14T15:25:18;26.20;26.90
75927;DHT22;64605;48.296;16.416;2023-06-14T15:27:44;26.20;29.00
75927;DHT22;64605;48.296;16.416;2023-06-14T15:30:10;26.00;28.20
75927;DHT22;64605;48.296;16.416;2023-06-14T15:32:36;25.80;29.80
75927;DHT22;64605;48.296;16.416;2023-06-14T15:35:02;25.80;29.40
75927;DHT22;64605;48.296;16.416;2023-06-14T15:37:27;25.70;29.60
75927;DHT22;64605;48.296;16.416;2023-06-14T15:39:53;25.70;29.50